Time;durP1;ratioP1;P1;durP2;ratioP2;P2;SDS_P1;SDS_P2;PMS_P1;PMS_P2;Temp;Humidity;BMP_temperature;BMP_pressure;BME280_temperature;BME280_humidity;BME280_pressure;Samples;Min_cycle;Max_cycle;Signal;HPM_P1;HPM_P2
2021/11/19 00:01:22;;;;;;;14.55;10.20;;;11.40;99.90;;;;;;4986349;28;20933;-85
2021/11/19 00:03:50;;;;;;;27.23;11.40;;;11.40;99.90;;;;;;4986092;28;20261;-87
2021/11/19 00:06:18;;;;;;;21.73;11.30;;;11.40;99.90;;;;;;4986539;28;20462;-86
2021/11/19 00:08:47;;;;;;;15.50;10.60;;;11.40;99.90;;;;;;4983069;28;20565;-87
2021/11/19 00:11:20;;;;;;;16.92;11.38;;;11.40;99.90;;;;;;4981476;28;20204;-87
2021/11/19 00:13:50;;;;;;;19.57;10.13;;;11.40;99.90;;;;;;4979506;28;20646;-86
2021/11/19 00:16:19;;;;;;;21.73;11.52;;;11.40;99.90;;;;;;4979703;28;20464;-86
2021/11/19 00:18:47;;;;;;;18.40;10.30;;;11.40;99.90;;;;;;4979410;28;20318;-88
2021/11/19 00:21:15;;;;;;;21.92;12.93;;;11.40;99.90;;;;;;4985950;28;20230;-86
2021/11/19 00:23:45;;;;;;;21.50;11.00;;;11.40;99.90;;;;;;4985441;28;20202;-86
2021/11/19 00:26:14;;;;;;;22.55;12.77;;;11.40;99.90;;;;;;4982766;28;20461;-86
2021/11/19 00:28:41;;;;;;;23.05;11.43;;;11.40;99.90;;;;;;4981500;28;20207;-86
2021/11/19 00:31:11;;;;;;;21.55;13.35;;;11.40;99.90;;;;;;4983219;28;20538;-86
2021/11/19 00:33:39;;;;;;;20.48;13.73;;;11.40;99.90;;;;;;4982329;28;20306;-86
2021/11/19 00:36:09;;;;;;;22.83;12.57;;;11.40;99.90;;;;;;4985778;28;20796;-87
2021/11/19 00:38:37;;;;;;;24.85;14.50;;;11.40;99.90;;;;;;4980058;28;20648;-86
2021/11/19 00:41:06;;;;;;;22.85;13.05;;;11.40;99.90;;;;;;4983692;28;20203;-86
2021/11/19 00:43:34;;;;;;;22.83;13.07;;;11.40;99.90;;;;;;4979891;28;20243;-86
2021/11/19 00:46:03;;;;;;;19.75;13.30;;;11.40;99.90;;;;;;4977756;28;20376;-87
2021/11/19 00:48:33;;;;;;;30.23;13.83;;;11.50;99.90;;;;;;4985555;28;20253;-87
2021/11/19 00:51:03;;;;;;;19.95;12.98;;;11.50;99.90;;;;;;4977420;28;20458;-86
2021/11/19 00:53:31;;;;;;;24.47;13.17;;;11.50;99.90;;;;;;4979512;28;20215;-86
2021/11/19 00:55:58;;;;;;;23.52;13.77;;;11.50;99.90;;;;;;4981280;28;20459;-87
2021/11/19 00:58:26;;;;;;;20.80;14.07;;;11.50;99.90;;;;;;4980748;28;20206;-87
2021/11/19 01:00:57;;;;;;;26.40;13.13;;;11.50;99.90;;;;;;4984602;28;20483;-87
2021/11/19 01:03:26;;;;;;;23.83;14.27;;;11.50;99.90;;;;;;4982804;28;20470;-86
2021/11/19 01:05:55;;;;;;;23.20;13.80;;;11.50;99.90;;;;;;4978098;28;20463;-86
2021/11/19 01:08:24;;;;;;;21.20;11.77;;;11.50;99.90;;;;;;4983798;28;20462;-87
2021/11/19 01:10:55;;;;;;;23.43;14.40;;;11.50;99.90;;;;;;4980319;28;20461;-86
2021/11/19 01:13:23;;;;;;;17.33;12.50;;;11.50;99.90;;;;;;4978822;28;20575;-86
2021/11/19 01:15:52;;;;;;;23.93;13.50;;;11.50;99.90;;;;;;4984036;28;20497;-86
2021/11/19 01:18:24;;;;;;;23.63;13.50;;;11.50;99.90;;;;;;4985135;28;20464;-86
2021/11/19 01:20:56;;;;;;;21.03;13.40;;;11.50;99.90;;;;;;4982508;28;20807;-86
2021/11/19 01:23:27;;;;;;;22.60;13.90;;;11.50;99.90;;;;;;4977587;28;20566;-86
2021/11/19 01:25:58;;;;;;;24.73;13.90;;;11.50;99.90;;;;;;4981980;28;20890;-86
2021/11/19 01:28:26;;;;;;;22.17;13.77;;;11.50;99.90;;;;;;4981675;28;20494;-87
2021/11/19 01:31:00;;;;;;;19.57;14.00;;;11.60;99.90;;;;;;4982463;28;20561;-87
2021/11/19 01:33:28;;;;;;;24.37;13.07;;;11.60;99.90;;;;;;4980519;28;20491;-87
2021/11/19 01:35:57;;;;;;;28.15;13.50;;;11.50;99.90;;;;;;4982274;28;20489;-87
2021/11/19 01:38:25;;;;;;;18.20;12.77;;;11.50;99.90;;;;;;4982130;28;20200;-87
2021/11/19 01:40:56;;;;;;;26.37;12.17;;;11.50;99.90;;;;;;4984586;28;21136;-87
2021/11/19 01:43:24;;;;;;;28.63;12.97;;;11.50;99.90;;;;;;4978835;28;20918;-86
2021/11/19 01:45:58;;;;;;;23.73;13.40;;;11.50;99.90;;;;;;4982170;28;20549;-87
2021/11/19 01:48:29;;;;;;;25.27;12.73;;;11.50;99.90;;;;;;4984386;28;20458;-87
2021/11/19 01:51:02;;;;;;;21.90;14.50;;;11.50;99.90;;;;;;4979689;28;20840;-86
2021/11/19 01:53:39;;;;;;;28.03;13.87;;;11.50;99.90;;;;;;4972495;28;20594;-87
2021/11/19 01:56:14;;;;;;;21.63;13.97;;;11.50;99.90;;;;;;4974103;28;20463;-86
2021/11/19 01:58:44;;;;;;;29.73;13.80;;;11.50;99.90;;;;;;4982878;28;20449;-86
2021/11/19 02:01:17;;;;;;;17.83;11.30;;;11.50;99.90;;;;;;4991092;28;20540;-86
2021/11/19 02:03:51;;;;;;;23.95;12.52;;;11.50;99.90;;;;;;4979076;28;20567;-86
2021/11/19 02:06:22;;;;;;;20.00;13.30;;;11.50;99.90;;;;;;4985695;28;20253;-86
2021/11/19 02:08:51;;;;;;;27.43;14.60;;;11.50;99.90;;;;;;4974710;28;20923;-86
2021/11/19 02:11:29;;;;;;;24.57;14.00;;;11.50;99.90;;;;;;4971490;28;20454;-87
2021/11/19 02:14:02;;;;;;;23.83;13.57;;;11.50;99.90;;;;;;4980292;28;20482;-87
2021/11/19 02:16:33;;;;;;;23.83;13.70;;;11.50;99.90;;;;;;4986210;28;20486;-87
2021/11/19 02:19:04;;;;;;;22.40;13.40;;;11.50;99.90;;;;;;4980141;28;20195;-86
2021/11/19 02:21:37;;;;;;;20.30;12.67;;;11.50;99.90;;;;;;4978280;28;21013;-86
2021/11/19 02:24:06;;;;;;;20.30;13.80;;;11.50;99.90;;;;;;4981710;28;21058;-86
2021/11/19 02:26:38;;;;;;;23.75;15.15;;;11.50;99.90;;;;;;4982642;28;20211;-86
2021/11/19 02:29:08;;;;;;;19.37;14.00;;;11.50;99.90;;;;;;4982003;28;20195;-86
2021/11/19 02:31:47;;;;;;;22.30;14.07;;;11.50;99.90;;;;;;4980348;28;20463;-87
2021/11/19 02:34:15;;;;;;;23.30;13.40;;;11.50;99.90;;;;;;4979143;28;20502;-87
2021/11/19 02:36:46;;;;;;;23.13;14.27;;;11.60;99.90;;;;;;4980293;28;20469;-87
2021/11/19 02:39:16;;;;;;;16.57;12.30;;;11.60;99.90;;;;;;4976275;28;20498;-86
2021/11/19 02:41:49;;;;;;;22.73;12.60;;;11.60;99.90;;;;;;4978593;28;20928;-86
2021/11/19 02:44:21;;;;;;;24.20;13.67;;;11.60;99.90;;;;;;4983522;28;20455;-87
2021/11/19 02:46:52;;;;;;;31.17;14.17;;;11.50;99.90;;;;;;4978784;28;20481;-86
2021/11/19 02:49:19;;;;;;;24.23;14.00;;;11.50;99.90;;;;;;4979178;28;20929;-87
2021/11/19 02:51:48;;;;;;;28.37;14.87;;;11.50;99.90;;;;;;4981909;28;20465;-86
2021/11/19 02:54:19;;;;;;;21.17;12.60;;;11.50;99.90;;;;;;4980572;28;20493;-86
2021/11/19 02:56:47;;;;;;;21.20;13.15;;;11.60;99.90;;;;;;4973780;28;20498;-86
2021/11/19 02:59:16;;;;;;;27.45;13.60;;;11.60;99.90;;;;;;4980261;28;20730;-85
2021/11/19 03:01:48;;;;;;;22.90;13.63;;;11.60;99.90;;;;;;4982979;28;20269;-85
2021/11/19 03:04:20;;;;;;;17.30;12.27;;;11.50;99.90;;;;;;4980388;28;20467;-87
2021/11/19 03:06:50;;;;;;;22.20;13.80;;;11.60;99.90;;;;;;4981485;28;20811;-86
2021/11/19 03:09:21;;;;;;;19.97;13.43;;;11.60;99.90;;;;;;4982508;28;20560;-86
2021/11/19 03:11:49;;;;;;;19.05;14.15;;;11.60;99.90;;;;;;4986847;28;20456;-87
2021/11/19 03:14:18;;;;;;;19.97;13.67;;;11.60;99.90;;;;;;4980404;28;20645;-86
2021/11/19 03:16:45;;;;;;;20.50;12.68;;;11.60;99.90;;;;;;4977727;28;20870;-86
2021/11/19 03:19:13;;;;;;;19.50;14.70;;;11.60;99.90;;;;;;4978480;28;20691;-86
2021/11/19 03:21:43;;;;;;;23.93;13.93;;;11.60;99.90;;;;;;4977959;28;20278;-85
2021/11/19 03:24:13;;;;;;;17.83;12.67;;;11.60;99.90;;;;;;4979803;28;20557;-86
2021/11/19 03:26:41;;;;;;;22.73;12.97;;;11.60;99.90;;;;;;4979463;28;20804;-86
2021/11/19 03:29:10;;;;;;;18.02;13.40;;;11.60;99.90;;;;;;4979364;28;20972;-86
2021/11/19 03:31:38;;;;;;;22.80;13.47;;;11.60;99.90;;;;;;4973947;28;20188;-88
2021/11/19 03:34:09;;;;;;;20.20;13.60;;;11.60;99.90;;;;;;4976465;28;20493;-86
2021/11/19 03:36:37;;;;;;;18.87;13.80;;;11.60;99.90;;;;;;4980502;28;20831;-85
2021/11/19 03:39:06;;;;;;;21.57;14.37;;;11.60;99.90;;;;;;4985282;28;20545;-85
2021/11/19 03:41:38;;;;;;;23.88;14.02;;;11.60;99.90;;;;;;4986907;28;20870;-86
2021/11/19 03:44:11;;;;;;;19.73;14.30;;;11.60;99.90;;;;;;4982155;28;20334;-86
2021/11/19 03:46:43;;;;;;;23.27;14.43;;;11.60;99.90;;;;;;4981379;28;21087;-86
2021/11/19 03:49:11;;;;;;;19.77;13.32;;;11.60;99.90;;;;;;4984723;28;20218;-86
2021/11/19 03:51:40;;;;;;;21.17;14.60;;;11.60;99.90;;;;;;4981152;28;20286;-86
2021/11/19 03:54:09;;;;;;;24.60;15.13;;;11.60;99.90;;;;;;4978781;28;20692;-85
2021/11/19 03:56:38;;;;;;;23.63;14.43;;;11.60;99.90;;;;;;4987627;28;20199;-86
2021/11/19 03:59:06;;;;;;;22.33;14.50;;;11.60;99.90;;;;;;4984444;28;20533;-85
2021/11/19 04:01:36;;;;;;;24.40;14.00;;;11.60;99.90;;;;;;4980362;28;20495;-85
2021/11/19 04:04:04;;;;;;;23.77;15.80;;;11.60;99.90;;;;;;4980380;28;20473;-85
2021/11/19 04:06:32;;;;;;;20.53;14.20;;;11.60;99.90;;;;;;4979186;28;20462;-85
2021/11/19 04:09:00;;;;;;;20.10;14.50;;;11.60;99.90;;;;;;4981841;28;20478;-87
2021/11/19 04:11:28;;;;;;;19.13;14.00;;;11.60;99.90;;;;;;4975691;28;20487;-85
2021/11/19 04:13:57;;;;;;;24.20;15.20;;;11.50;99.90;;;;;;4981620;28;20219;-85
2021/11/19 04:16:28;;;;;;;27.93;14.90;;;11.50;99.90;;;;;;4984129;28;20548;-85
2021/11/19 04:18:55;;;;;;;20.70;14.30;;;11.50;99.90;;;;;;4980533;28;20461;-86
2021/11/19 04:21:22;;;;;;;18.92;14.80;;;11.50;99.90;;;;;;4982952;28;20467;-85
2021/11/19 04:23:52;;;;;;;23.90;15.23;;;11.50;99.90;;;;;;4986244;28;20762;-85
2021/11/19 04:26:20;;;;;;;27.25;16.85;;;11.50;99.90;;;;;;4985748;28;20898;-85
2021/11/19 04:28:49;;;;;;;21.27;14.68;;;11.50;99.90;;;;;;4981864;28;20195;-85
2021/11/19 04:31:18;;;;;;;22.50;16.08;;;11.50;99.90;;;;;;4979373;28;20262;-85
2021/11/19 04:33:47;;;;;;;24.03;15.77;;;11.60;99.90;;;;;;4984389;28;20230;-85
2021/11/19 04:36:16;;;;;;;24.52;15.57;;;11.60;99.90;;;;;;4986238;28;20568;-84
2021/11/19 04:38:44;;;;;;;22.47;15.50;;;11.60;99.90;;;;;;4987701;28;20200;-86
2021/11/19 04:41:12;;;;;;;23.48;16.75;;;11.60;99.90;;;;;;4983604;28;20513;-85
2021/11/19 04:43:39;;;;;;;24.90;16.27;;;11.60;99.90;;;;;;4981759;28;20219;-85
2021/11/19 04:46:08;;;;;;;24.48;16.38;;;11.60;99.90;;;;;;4984335;28;20462;-84
2021/11/19 04:48:38;;;;;;;23.73;15.10;;;11.60;99.90;;;;;;4984321;28;20202;-85
2021/11/19 04:51:08;;;;;;;21.50;14.57;;;11.60;99.90;;;;;;4979279;28;21062;-86
2021/11/19 04:53:36;;;;;;;26.67;15.80;;;11.60;99.90;;;;;;4980412;28;20834;-84
2021/11/19 04:56:04;;;;;;;22.77;16.90;;;11.60;99.90;;;;;;4979074;28;20470;-84
2021/11/19 04:58:32;;;;;;;20.35;15.18;;;11.70;99.90;;;;;;4980255;28;20455;-86
2021/11/19 05:01:07;;;;;;;24.27;16.80;;;11.70;99.90;;;;;;4979453;28;20615;-84
2021/11/19 05:03:37;;;;;;;26.30;17.00;;;11.70;99.90;;;;;;4979289;28;20458;-84
2021/11/19 05:06:06;;;;;;;24.70;17.70;;;11.70;99.90;;;;;;4983084;28;20470;-87
2021/11/19 05:08:34;;;;;;;31.53;18.23;;;11.70;99.90;;;;;;4981212;28;20975;-84
2021/11/19 05:11:03;;;;;;;23.00;16.02;;;11.70;99.90;;;;;;4977724;28;20463;-85
2021/11/19 05:13:32;;;;;;;23.20;15.07;;;11.70;99.90;;;;;;4976707;28;20224;-84
2021/11/19 05:16:03;;;;;;;21.80;15.60;;;11.70;99.90;;;;;;4982933;28;20500;-85
2021/11/19 05:18:31;;;;;;;26.80;16.50;;;11.70;99.90;;;;;;4981971;28;20202;-84
2021/11/19 05:21:02;;;;;;;25.47;17.63;;;11.70;99.90;;;;;;4980994;28;20509;-85
2021/11/19 05:23:29;;;;;;;22.50;16.17;;;11.70;99.90;;;;;;4982364;28;20562;-86
2021/11/19 05:25:57;;;;;;;23.33;16.40;;;11.70;99.90;;;;;;4977252;28;20196;-84
2021/11/19 05:28:26;;;;;;;26.53;17.67;;;11.70;99.90;;;;;;4983487;28;20459;-84
2021/11/19 05:30:54;;;;;;;24.80;16.00;;;11.80;99.90;;;;;;4990658;28;20504;-84
2021/11/19 05:33:25;;;;;;;23.03;17.17;;;11.70;99.90;;;;;;4981142;28;20525;-84
2021/11/19 05:35:53;;;;;;;25.75;18.17;;;11.70;99.90;;;;;;4981035;28;20464;-84
2021/11/19 05:38:24;;;;;;;26.30;17.08;;;11.70;99.90;;;;;;4980524;28;20196;-84
2021/11/19 05:40:52;;;;;;;22.80;15.43;;;11.70;99.90;;;;;;4978758;28;20198;-84
2021/11/19 05:43:20;;;;;;;21.37;15.63;;;11.70;99.90;;;;;;4984579;28;20490;-86
2021/11/19 05:45:47;;;;;;;22.37;17.40;;;11.80;99.90;;;;;;4983873;28;20458;-86
2021/11/19 05:48:15;;;;;;;31.00;15.93;;;11.70;99.90;;;;;;4985490;28;20474;-85
2021/11/19 05:50:44;;;;;;;21.63;16.53;;;11.80;99.90;;;;;;4980401;28;20970;-85
2021/11/19 05:53:13;;;;;;;27.70;17.70;;;11.80;99.90;;;;;;4983986;28;20458;-84
2021/11/19 05:55:46;;;;;;;23.42;17.77;;;11.80;99.90;;;;;;4979544;28;20465;-83
2021/11/19 05:58:14;;;;;;;24.33;17.00;;;11.70;99.90;;;;;;4981891;28;20207;-86
2021/11/19 06:00:43;;;;;;;22.63;16.57;;;11.80;99.90;;;;;;4974307;28;20428;-84
2021/11/19 06:03:11;;;;;;;22.83;16.10;;;11.80;99.90;;;;;;4979810;28;20900;-85
2021/11/19 06:05:39;;;;;;;31.33;16.25;;;11.70;99.90;;;;;;4979378;28;20833;-83
2021/11/19 06:08:07;;;;;;;20.80;15.50;;;11.80;99.90;;;;;;4973337;28;20281;-84
2021/11/19 06:10:37;;;;;;;22.05;15.10;;;11.80;99.90;;;;;;4984622;28;20570;-84
2021/11/19 06:13:08;;;;;;;21.80;14.70;;;11.80;99.90;;;;;;4981427;28;20241;-84
2021/11/19 06:15:38;;;;;;;20.42;15.40;;;11.70;99.90;;;;;;4978698;28;20459;-87
2021/11/19 06:18:09;;;;;;;20.23;14.87;;;11.70;99.90;;;;;;4974571;28;20643;-85
2021/11/19 06:20:41;;;;;;;20.70;14.80;;;11.70;99.90;;;;;;4978550;28;20462;-85
2021/11/19 06:23:11;;;;;;;22.25;15.55;;;11.80;99.90;;;;;;4968365;28;20208;-83
2021/11/19 06:25:39;;;;;;;22.50;15.33;;;11.80;99.90;;;;;;4975234;28;20199;-85
2021/11/19 06:28:10;;;;;;;28.03;15.83;;;11.80;99.90;;;;;;4971217;28;20463;-86
2021/11/19 06:30:37;;;;;;;19.23;13.57;;;11.80;99.90;;;;;;4981746;28;20462;-84
2021/11/19 06:33:05;;;;;;;21.63;14.50;;;11.80;99.90;;;;;;4981624;28;20459;-84
2021/11/19 06:35:47;;;;;;;21.57;16.63;;;11.80;99.90;;;;;;4973969;28;20498;-84
2021/11/19 06:38:15;;;;;;;21.93;16.13;;;11.80;99.90;;;;;;4973690;28;20485;-84
2021/11/19 06:40:43;;;;;;;22.30;15.77;;;11.70;99.90;;;;;;4977396;28;20546;-84
2021/11/19 06:43:12;;;;;;;22.75;14.77;;;11.80;99.90;;;;;;4972359;28;20502;-85
2021/11/19 06:45:39;;;;;;;20.60;14.57;;;11.80;99.90;;;;;;4976809;28;20199;-84
2021/11/19 06:48:07;;;;;;;19.63;15.23;;;11.80;99.90;;;;;;4977898;28;20450;-84
2021/11/19 06:50:37;;;;;;;24.85;15.05;;;11.80;99.90;;;;;;4973943;28;20479;-84
2021/11/19 06:53:05;;;;;;;22.83;15.32;;;11.80;99.90;;;;;;4979052;28;20242;-83
2021/11/19 06:55:33;;;;;;;20.83;15.87;;;11.80;99.90;;;;;;4977301;28;20223;-84
2021/11/19 06:58:00;;;;;;;20.40;13.90;;;11.80;99.90;;;;;;4974454;28;20565;-84
2021/11/19 07:00:31;;;;;;;23.50;16.43;;;11.70;99.90;;;;;;4970057;28;20625;-84
2021/11/19 07:02:58;;;;;;;19.40;15.10;;;11.70;99.90;;;;;;4978121;28;20466;-84
2021/11/19 07:05:27;;;;;;;27.05;16.50;;;11.70;99.90;;;;;;4978325;28;20811;-83
2021/11/19 07:07:54;;;;;;;22.40;15.63;;;11.70;99.90;;;;;;4975160;28;20229;-84
2021/11/19 07:10:23;;;;;;;23.20;15.73;;;11.80;99.90;;;;;;4972684;28;20204;-85
2021/11/19 07:12:50;;;;;;;23.87;15.40;;;11.80;99.90;;;;;;4978330;28;20204;-84
2021/11/19 07:15:18;;;;;;;28.05;20.33;;;11.80;99.90;;;;;;4980810;28;20582;-85
2021/11/19 07:17:48;;;;;;;26.50;19.30;;;11.80;99.90;;;;;;4978117;28;20207;-84
2021/11/19 07:20:17;;;;;;;29.33;20.80;;;11.80;99.90;;;;;;4978092;28;20469;-85
2021/11/19 07:22:45;;;;;;;31.92;21.77;;;11.80;99.90;;;;;;4978793;28;20210;-86
2021/11/19 07:25:14;;;;;;;30.88;20.40;;;11.80;99.90;;;;;;4973985;28;20199;-86
2021/11/19 07:27:42;;;;;;;24.98;17.50;;;11.80;99.90;;;;;;4979850;28;20285;-85
2021/11/19 07:30:13;;;;;;;24.73;18.50;;;11.80;99.90;;;;;;4982663;28;20204;-86
2021/11/19 07:32:40;;;;;;;30.60;19.87;;;11.90;99.90;;;;;;4978729;28;20564;-84
2021/11/19 07:35:09;;;;;;;24.47;17.57;;;11.90;99.90;;;;;;4974987;28;20513;-84
2021/11/19 07:37:38;;;;;;;26.23;19.00;;;11.90;99.90;;;;;;4980804;28;20466;-84
2021/11/19 07:40:05;;;;;;;27.92;19.13;;;11.90;99.90;;;;;;4976043;28;20961;-84
2021/11/19 07:42:33;;;;;;;24.80;19.33;;;11.90;99.90;;;;;;4984931;28;20778;-85
2021/11/19 07:45:00;;;;;;;25.13;18.17;;;11.90;99.90;;;;;;4978776;28;20465;-84
2021/11/19 07:47:27;;;;;;;25.85;17.27;;;11.90;99.90;;;;;;4980005;28;20610;-83
2021/11/19 07:49:54;;;;;;;24.00;17.60;;;11.90;99.90;;;;;;4980875;28;20622;-85
2021/11/19 07:52:23;;;;;;;26.33;18.38;;;11.90;99.90;;;;;;4984216;28;20470;-84
2021/11/19 07:54:50;;;;;;;22.90;17.37;;;11.90;99.90;;;;;;4975206;28;20241;-85
2021/11/19 07:57:18;;;;;;;27.52;19.30;;;11.90;99.90;;;;;;4978982;28;20826;-84
2021/11/19 07:59:45;;;;;;;20.80;15.93;;;11.90;99.90;;;;;;4977476;28;20234;-84
2021/11/19 08:02:12;;;;;;;25.73;17.10;;;11.90;99.90;;;;;;4972290;28;20312;-85
2021/11/19 08:04:39;;;;;;;24.80;16.60;;;11.90;99.90;;;;;;4981828;28;20215;-84
2021/11/19 08:07:07;;;;;;;23.03;16.13;;;11.90;99.90;;;;;;4979879;28;20462;-84
2021/11/19 08:09:36;;;;;;;28.70;18.17;;;12.00;99.90;;;;;;4977209;28;20488;-85
2021/11/19 08:12:04;;;;;;;23.80;18.07;;;11.90;99.90;;;;;;4973669;28;20479;-84
2021/11/19 08:14:31;;;;;;;25.17;19.47;;;12.00;99.90;;;;;;4972205;28;20593;-85
2021/11/19 08:17:00;;;;;;;27.90;19.27;;;11.90;99.90;;;;;;4981048;28;20476;-84
2021/11/19 08:19:30;;;;;;;30.30;19.50;;;11.90;99.90;;;;;;4979959;28;20454;-84
2021/11/19 08:21:59;;;;;;;24.80;18.33;;;12.00;99.90;;;;;;4978974;28;20553;-85
2021/11/19 08:24:27;;;;;;;29.85;19.30;;;11.90;99.90;;;;;;4972908;28;20804;-85
2021/11/19 08:27:00;;;;;;;24.53;17.80;;;12.00;99.90;;;;;;4977666;28;20211;-84
2021/11/19 08:29:30;;;;;;;29.25;18.60;;;12.00;99.90;;;;;;4974462;28;20490;-84
2021/11/19 08:31:58;;;;;;;24.90;16.57;;;12.00;99.90;;;;;;4980765;28;20223;-85
2021/11/19 08:34:26;;;;;;;24.80;16.20;;;12.00;99.90;;;;;;4977759;28;20583;-83
2021/11/19 08:36:53;;;;;;;21.77;15.70;;;12.00;99.90;;;;;;4978530;28;20458;-84
2021/11/19 08:39:23;;;;;;;21.93;16.20;;;12.00;99.90;;;;;;4975131;28;20462;-84
2021/11/19 08:41:51;;;;;;;23.20;17.30;;;12.00;99.90;;;;;;4975458;28;21022;-84
2021/11/19 08:44:20;;;;;;;22.40;15.80;;;12.00;99.90;;;;;;4976037;28;20776;-84
2021/11/19 08:46:50;;;;;;;18.13;14.30;;;12.00;99.90;;;;;;4980005;28;20467;-84
2021/11/19 08:49:23;;;;;;;19.50;14.83;;;12.00;99.90;;;;;;4978531;28;20481;-83
2021/11/19 08:51:51;;;;;;;21.77;16.10;;;12.00;99.90;;;;;;4974636;28;20558;-85
2021/11/19 08:54:18;;;;;;;20.08;15.50;;;12.00;99.90;;;;;;4983833;28;20834;-83
2021/11/19 08:56:48;;;;;;;19.07;14.03;;;12.10;99.90;;;;;;4980757;28;20352;-84
2021/11/19 08:59:16;;;;;;;23.42;15.90;;;12.10;99.90;;;;;;4977701;28;20981;-89
2021/11/19 09:01:47;;;;;;;20.83;15.80;;;12.10;99.90;;;;;;4974770;28;20239;-84
2021/11/19 09:04:16;;;;;;;18.17;14.50;;;12.10;99.90;;;;;;4977999;28;20570;-85
2021/11/19 09:06:43;;;;;;;20.50;15.73;;;12.10;99.90;;;;;;4977566;28;20478;-84
2021/11/19 09:09:10;;;;;;;26.03;17.40;;;12.10;99.90;;;;;;4981270;28;20459;-85
2021/11/19 09:11:39;;;;;;;23.73;16.30;;;12.10;99.90;;;;;;4976510;28;20470;-86
2021/11/19 09:14:06;;;;;;;25.03;16.93;;;12.10;99.90;;;;;;4980321;28;20462;-84
2021/11/19 09:16:41;;;;;;;24.70;16.73;;;12.10;99.90;;;;;;4979660;28;20456;-84
2021/11/19 09:19:20;;;;;;;22.47;17.40;;;12.10;99.90;;;;;;4977422;28;20479;-83
2021/11/19 09:21:49;;;;;;;24.57;18.67;;;12.20;99.90;;;;;;4977696;28;20459;-84
2021/11/19 09:24:20;;;;;;;23.50;17.77;;;12.20;99.90;;;;;;4981619;28;20494;-85
2021/11/19 09:26:51;;;;;;;24.47;17.37;;;12.20;99.90;;;;;;4978083;28;20845;-84
2021/11/19 09:29:24;;;;;;;24.63;17.97;;;12.20;99.90;;;;;;4976236;28;20458;-86
2021/11/19 09:31:52;;;;;;;20.60;15.60;;;12.20;99.90;;;;;;4977810;28;20450;-84
2021/11/19 09:34:21;;;;;;;17.90;14.70;;;12.20;99.90;;;;;;4972535;28;20676;-85
2021/11/19 09:36:51;;;;;;;20.40;15.80;;;12.20;99.90;;;;;;4978186;28;20470;-83
2021/11/19 09:39:20;;;;;;;19.30;14.80;;;12.20;99.90;;;;;;4976261;28;20578;-86
2021/11/19 09:41:56;;;;;;;19.43;14.37;;;12.20;99.90;;;;;;4973762;28;20489;-86
2021/11/19 09:45:12;;;;;;;18.07;14.00;;;12.20;99.90;;;;;;4977870;28;20461;-84
2021/11/19 09:48:17;;;;;;;20.50;15.47;;;12.30;99.90;;;;;;4975563;28;20550;-83
2021/11/19 09:51:22;;;;;;;19.63;15.60;;;12.30;99.90;;;;;;4978578;28;20596;-84
2021/11/19 09:54:26;;;;;;;20.40;15.50;;;12.30;99.90;;;;;;4979013;28;20469;-84
2021/11/19 09:57:15;;;;;;;19.60;15.40;;;12.30;99.90;;;;;;4977803;28;20466;-84
2021/11/19 09:59:45;;;;;;;20.67;14.60;;;12.20;99.90;;;;;;4975415;28;20463;-84
2021/11/19 10:02:58;;;;;;;19.20;15.30;;;12.30;99.90;;;;;;4976097;28;20487;-84
2021/11/19 10:05:50;;;;;;;18.63;14.70;;;12.20;99.90;;;;;;4963436;28;20841;-84
2021/11/19 10:08:41;;;;;;;23.23;15.27;;;12.20;99.90;;;;;;4961764;28;20465;-84
2021/11/19 10:11:15;;;;;;;19.40;14.93;;;12.30;99.90;;;;;;4974589;28;20343;-84
2021/11/19 10:14:30;;;;;;;18.77;15.37;;;12.30;99.90;;;;;;4977185;28;20468;-84
2021/11/19 10:17:08;;;;;;;19.53;14.07;;;12.30;99.90;;;;;;4975648;28;21028;-84
2021/11/19 10:19:39;;;;;;;18.97;13.97;;;12.30;99.90;;;;;;4971660;28;20569;-85
2021/11/19 10:22:13;;;;;;;20.37;15.37;;;12.30;99.90;;;;;;4972390;28;20463;-85
2021/11/19 10:24:47;;;;;;;20.07;16.30;;;12.30;99.90;;;;;;4972895;28;20462;-84
2021/11/19 10:27:16;;;;;;;20.77;15.30;;;12.30;99.90;;;;;;4975517;28;20969;-85
2021/11/19 10:29:46;;;;;;;18.23;15.38;;;12.30;99.90;;;;;;4973667;28;20466;-85
2021/11/19 10:32:16;;;;;;;22.13;15.73;;;12.30;99.90;;;;;;4975993;28;20565;-84
2021/11/19 10:34:48;;;;;;;20.53;16.70;;;12.30;99.90;;;;;;4970481;28;20457;-85
2021/11/19 10:37:56;;;;;;;22.90;17.50;;;12.40;99.90;;;;;;4974781;28;20590;-83
2021/11/19 10:41:04;;;;;;;26.63;17.93;;;12.40;99.90;;;;;;4969920;28;20478;-84
2021/11/19 10:43:51;;;;;;;24.60;18.23;;;12.40;99.90;;;;;;4957778;28;20522;-87
2021/11/19 10:46:50;;;;;;;24.37;14.80;;;12.40;99.90;;;;;;4969202;28;20470;-81
2021/11/19 10:49:53;;;;;;;22.60;15.90;;;12.40;99.90;;;;;;4971825;28;21005;-86
2021/11/19 10:53:01;;;;;;;22.03;16.17;;;12.50;99.90;;;;;;4974079;28;20480;-86
2021/11/19 10:56:03;;;;;;;22.90;15.63;;;12.60;99.90;;;;;;4976839;28;20487;-85
2021/11/19 10:58:47;;;;;;;27.00;16.00;;;12.70;99.90;;;;;;4966931;28;20458;-82
2021/11/19 11:01:20;;;;;;;25.10;15.83;;;12.80;99.90;;;;;;4967685;28;20487;-84
2021/11/19 11:04:09;;;;;;;22.47;16.80;;;12.90;99.90;;;;;;4978759;28;20467;-84
2021/11/19 11:06:52;;;;;;;26.93;18.10;;;12.90;99.90;;;;;;4973630;28;20461;-86
2021/11/19 11:09:30;;;;;;;26.77;17.50;;;12.90;99.90;;;;;;4978766;28;20893;-86
2021/11/19 11:12:21;;;;;;;24.03;17.93;;;13.00;99.90;;;;;;4974378;28;20821;-85
2021/11/19 11:15:10;;;;;;;22.17;16.40;;;13.10;99.90;;;;;;4978508;28;20581;-84
2021/11/19 11:17:53;;;;;;;21.83;16.03;;;13.10;99.90;;;;;;4979313;28;20467;-86
2021/11/19 11:20:30;;;;;;;27.37;17.20;;;13.20;99.90;;;;;;4974002;28;20469;-85
2021/11/19 11:23:00;;;;;;;27.60;19.10;;;13.30;99.90;;;;;;4974424;28;20974;-87
2021/11/19 11:25:31;;;;;;;25.43;18.17;;;13.30;99.90;;;;;;4975456;28;20472;-85
2021/11/19 11:28:09;;;;;;;26.50;17.70;;;13.20;99.90;;;;;;4978077;28;20846;-86
2021/11/19 11:30:53;;;;;;;25.23;17.27;;;13.30;99.90;;;;;;4972979;28;20473;-84
2021/11/19 11:33:24;;;;;;;25.37;17.13;;;13.20;99.90;;;;;;4973944;28;20473;-85
2021/11/19 11:35:53;;;;;;;23.43;16.40;;;13.20;99.90;;;;;;4983821;28;20980;-84
2021/11/19 11:38:31;;;;;;;23.30;17.60;;;13.20;99.90;;;;;;4972374;28;20808;-84
2021/11/19 11:41:12;;;;;;;26.50;17.47;;;13.20;99.90;;;;;;4979342;28;20499;-86
2021/11/19 11:43:43;;;;;;;29.40;17.83;;;13.20;99.90;;;;;;4977159;28;20488;-84
2021/11/19 11:46:31;;;;;;;28.77;18.73;;;13.10;99.90;;;;;;4981364;28;20546;-84
2021/11/19 11:49:17;;;;;;;25.87;18.07;;;13.10;99.90;;;;;;4979885;28;20462;-84
2021/11/19 11:51:57;;;;;;;24.80;17.27;;;13.10;99.90;;;;;;4970926;28;20558;-84
2021/11/19 11:54:30;;;;;;;26.73;18.50;;;13.10;99.90;;;;;;4978208;28;20542;-85
2021/11/19 11:57:19;;;;;;;24.50;18.53;;;13.10;99.90;;;;;;4980545;28;20578;-85
2021/11/19 11:59:58;;;;;;;27.97;18.80;;;13.00;99.90;;;;;;4983320;28;20473;-85
2021/11/19 12:02:32;;;;;;;26.90;18.20;;;13.10;99.90;;;;;;4989756;28;20502;-84
2021/11/19 12:05:10;;;;;;;29.47;19.20;;;13.00;99.90;;;;;;4981667;28;20471;-85
2021/11/19 12:07:46;;;;;;;25.30;19.17;;;13.00;99.90;;;;;;4979515;28;20495;-85
2021/11/19 12:10:20;;;;;;;29.77;18.60;;;13.00;99.90;;;;;;4981378;28;20466;-85
2021/11/19 12:12:53;;;;;;;26.47;18.67;;;13.00;99.90;;;;;;4980659;28;20461;-87
2021/11/19 12:15:26;;;;;;;26.50;19.73;;;13.00;99.90;;;;;;4984295;28;20562;-85
2021/11/19 12:17:59;;;;;;;29.90;19.13;;;13.00;99.90;;;;;;4987038;28;20466;-84
2021/11/19 12:20:47;;;;;;;29.17;20.73;;;13.00;99.90;;;;;;4989853;28;20463;-85
2021/11/19 12:23:27;;;;;;;25.23;19.33;;;12.90;99.90;;;;;;4984097;28;20548;-84
2021/11/19 12:26:32;;;;;;;28.80;20.33;;;13.00;99.90;;;;;;4985886;28;20467;-87
2021/11/19 12:29:07;;;;;;;28.77;18.43;;;12.90;99.90;;;;;;4983917;28;20491;-84
2021/11/19 12:31:41;;;;;;;29.00;20.07;;;12.90;99.90;;;;;;4981256;28;20461;-84
2021/11/19 12:34:17;;;;;;;27.67;20.37;;;12.90;99.90;;;;;;4981785;28;20461;-85
2021/11/19 12:36:51;;;;;;;32.17;19.73;;;13.00;99.90;;;;;;4978473;28;20505;-84
2021/11/19 12:39:19;;;;;;;26.70;18.73;;;13.00;99.90;;;;;;4983715;28;20506;-85
2021/11/19 12:41:57;;;;;;;26.30;19.07;;;13.00;99.90;;;;;;4985196;28;20514;-84
2021/11/19 12:44:46;;;;;;;27.63;17.80;;;12.90;99.90;;;;;;4984866;28;20474;-84
2021/11/19 12:47:28;;;;;;;29.30;20.47;;;13.00;99.90;;;;;;4987968;28;20452;-86
2021/11/19 12:50:17;;;;;;;23.70;17.80;;;13.00;99.90;;;;;;4986557;28;20804;-85
2021/11/19 12:52:50;;;;;;;27.33;19.47;;;13.00;99.90;;;;;;4982282;28;20549;-86
2021/11/19 12:55:37;;;;;;;26.37;18.07;;;13.00;99.90;;;;;;4985532;28;20964;-85